createdAt,value
2022-12-03T00:00:07.473Z,12.90
2022-12-03T00:02:38.205Z,13.13
2022-12-03T00:05:06.154Z,12.03
2022-12-03T00:07:33.739Z,12.97
2022-12-03T00:10:01.292Z,13.00
2022-12-03T00:12:28.763Z,12.37
2022-12-03T00:14:58.576Z,12.30
2022-12-03T00:17:26.125Z,12.43
2022-12-03T00:19:53.569Z,12.13
2022-12-03T00:22:20.978Z,12.30
2022-12-03T00:24:48.428Z,11.90
2022-12-03T00:27:15.852Z,13.17
2022-12-03T00:29:43.406Z,12.50
2022-12-03T00:32:12.212Z,11.67
2022-12-03T00:34:39.674Z,12.17
2022-12-03T00:37:07.137Z,12.43
2022-12-03T00:39:34.729Z,13.13
2022-12-03T00:42:02.186Z,12.47
2022-12-03T00:44:29.614Z,12.47
2022-12-03T00:46:57.099Z,11.90
2022-12-03T00:49:26.008Z,12.27
2022-12-03T00:51:53.482Z,12.10
2022-12-03T00:54:20.923Z,11.57
2022-12-03T00:56:48.386Z,11.70
2022-12-03T00:59:15.833Z,12.40
2022-12-03T01:01:43.599Z,12.27
2022-12-03T01:04:11.166Z,12.13
2022-12-03T01:06:40.666Z,12.93
2022-12-03T01:09:08.148Z,13.03
2022-12-03T01:11:38.464Z,12.67
2022-12-03T01:14:06.136Z,12.80
2022-12-03T01:16:33.956Z,12.53
2022-12-03T01:19:01.583Z,13.30
2022-12-03T01:21:29.113Z,13.23
2022-12-03T01:23:57.891Z,12.17
2022-12-03T01:26:25.582Z,11.73
2022-12-03T01:28:53.452Z,13.07
2022-12-03T01:31:39.217Z,13.67
2022-12-03T01:34:06.993Z,13.10
2022-12-03T01:36:35.194Z,13.43
2022-12-03T01:39:04.658Z,13.50
2022-12-03T01:41:32.650Z,12.60
2022-12-03T01:44:00.677Z,12.87
2022-12-03T01:46:32.864Z,13.70
2022-12-03T01:49:00.338Z,13.90
2022-12-03T01:51:27.871Z,12.70
2022-12-03T01:53:55.357Z,12.43
2022-12-03T01:56:24.263Z,12.50
2022-12-03T01:58:51.794Z,13.00
2022-12-03T02:01:20.174Z,12.87
2022-12-03T02:03:47.969Z,13.73
2022-12-03T02:06:16.873Z,13.27
2022-12-03T02:08:45.196Z,13.50
2022-12-03T02:11:17.943Z,13.40
2022-12-03T02:13:47.412Z,13.27
2022-12-03T02:16:14.947Z,13.20
2022-12-03T02:18:42.650Z,12.60
2022-12-03T02:21:13.991Z,12.73
2022-12-03T02:23:43.773Z,12.80
2022-12-03T02:26:12.607Z,13.07
2022-12-03T02:28:40.030Z,12.60
2022-12-03T02:31:07.739Z,12.53
2022-12-03T02:33:35.302Z,13.07
2022-12-03T02:36:04.053Z,13.33
2022-12-03T02:38:33.080Z,13.50
2022-12-03T02:41:03.584Z,12.07
2022-12-03T02:43:31.484Z,12.80
2022-12-03T02:46:00.873Z,12.53
2022-12-03T02:48:30.167Z,12.03
2022-12-03T02:50:59.297Z,12.60
2022-12-03T02:53:27.687Z,11.63
2022-12-03T02:55:56.238Z,12.37
2022-12-03T02:58:24.265Z,11.77
2022-12-03T03:00:53.651Z,12.23
2022-12-03T03:03:22.239Z,11.90
2022-12-03T03:05:50.113Z,12.03
2022-12-03T03:08:18.338Z,11.07
2022-12-03T03:10:47.126Z,11.87
2022-12-03T03:13:15.866Z,12.03
2022-12-03T03:15:43.609Z,11.40
2022-12-03T03:18:13.435Z,11.17
2022-12-03T03:20:41.019Z,11.73
2022-12-03T03:23:14.208Z,12.00
2022-12-03T03:25:43.013Z,12.87
2022-12-03T03:28:10.643Z,14.50
2022-12-03T03:30:39.857Z,12.93
2022-12-03T03:33:07.725Z,13.53
2022-12-03T03:35:37.202Z,13.77
2022-12-03T03:38:04.894Z,13.10
2022-12-03T03:40:32.497Z,14.00
2022-12-03T03:43:01.071Z,13.57
2022-12-03T03:45:29.608Z,13.87
2022-12-03T03:47:58.160Z,14.03
2022-12-03T03:50:25.808Z,13.57
2022-12-03T03:52:55.370Z,13.13
2022-12-03T03:55:22.821Z,13.37
2022-12-03T03:57:50.277Z,13.03
2022-12-03T04:00:18.126Z,13.57
2022-12-03T04:02:45.608Z,12.57
2022-12-03T04:05:16.468Z,12.57
2022-12-03T04:07:44.003Z,12.83
2022-12-03T04:10:30.965Z,12.37
2022-12-03T04:12:58.457Z,12.83
2022-12-03T04:15:26.094Z,11.87
2022-12-03T04:18:07.500Z,12.10
2022-12-03T04:20:34.910Z,10.87
2022-12-03T04:23:02.117Z,11.80
2022-12-03T04:25:48.496Z,12.57
2022-12-03T04:28:33.761Z,11.13
2022-12-03T04:31:21.245Z,10.57
2022-12-03T04:34:06.464Z,11.33
2022-12-03T04:36:33.939Z,10.67
2022-12-03T04:39:01.633Z,11.73
2022-12-03T04:41:30.398Z,11.27
2022-12-03T04:44:15.157Z,12.53
2022-12-03T04:46:42.649Z,11.57
2022-12-03T04:49:10.118Z,11.10
2022-12-03T04:51:37.602Z,11.80
2022-12-03T04:54:05.065Z,11.67
2022-12-03T04:56:33.830Z,10.60
2022-12-03T04:59:01.501Z,10.93
2022-12-03T05:01:29.169Z,11.20
2022-12-03T05:03:56.837Z,10.33
2022-12-03T05:06:24.295Z,10.63
2022-12-03T05:08:51.749Z,10.83
2022-12-03T05:11:19.199Z,11.37
2022-12-03T05:13:47.996Z,11.07
2022-12-03T05:16:15.487Z,10.70
2022-12-03T05:18:42.926Z,10.47
2022-12-03T05:21:10.359Z,10.90
2022-12-03T05:23:37.798Z,11.17
2022-12-03T05:26:05.276Z,12.20
2022-12-03T05:28:34.489Z,11.90
2022-12-03T05:31:04.810Z,11.73
2022-12-03T05:33:32.314Z,11.83
2022-12-03T05:35:59.772Z,11.33
2022-12-03T05:38:27.245Z,11.90
2022-12-03T05:40:54.767Z,12.27
2022-12-03T05:43:21.297Z,11.27
2022-12-03T05:45:48.819Z,11.53
2022-12-03T05:48:18.075Z,11.40
2022-12-03T05:50:46.807Z,11.60
2022-12-03T05:53:17.947Z,11.80
2022-12-03T05:55:45.481Z,11.87
2022-12-03T05:58:12.936Z,11.57
2022-12-03T06:00:42.679Z,11.53
2022-12-03T06:03:10.659Z,11.87
2022-12-03T06:05:39.748Z,12.27
2022-12-03T06:08:07.284Z,11.83
2022-12-03T06:10:34.809Z,11.43
2022-12-03T06:13:03.176Z,12.47
2022-12-03T06:15:30.738Z,12.40
2022-12-03T06:17:58.226Z,11.87
2022-12-03T06:20:25.658Z,11.27
2022-12-03T06:22:54.451Z,12.33
2022-12-03T06:25:21.886Z,11.60
2022-12-03T06:27:49.332Z,11.60
2022-12-03T06:30:16.876Z,11.00
2022-12-03T06:32:44.404Z,11.83
2022-12-03T06:35:12.553Z,10.93
2022-12-03T06:37:39.970Z,11.13
2022-12-03T06:40:09.703Z,11.27
2022-12-03T06:42:37.116Z,11.20
2022-12-03T06:45:06.177Z,10.47
2022-12-03T06:47:33.685Z,11.30
2022-12-03T06:50:01.516Z,10.77
2022-12-03T06:52:28.968Z,11.93
2022-12-03T06:54:56.669Z,10.90
2022-12-03T06:57:25.636Z,11.07
2022-12-03T06:59:53.281Z,11.17
2022-12-03T07:02:20.941Z,10.27
2022-12-03T07:04:48.415Z,10.73
2022-12-03T07:07:15.923Z,10.80
2022-12-03T07:09:43.436Z,10.67
2022-12-03T07:12:11.034Z,10.93
2022-12-03T07:14:39.917Z,10.57
2022-12-03T07:17:07.374Z,10.90
2022-12-03T07:19:34.786Z,10.27
2022-12-03T07:22:02.655Z,9.87
2022-12-03T07:24:30.146Z,10.73
2022-12-03T07:26:57.577Z,10.33
2022-12-03T07:29:25.094Z,10.20
2022-12-03T07:31:54.017Z,10.37
2022-12-03T07:34:21.544Z,10.60
2022-12-03T07:36:49.135Z,9.90
2022-12-03T07:39:16.596Z,9.83
2022-12-03T07:41:44.077Z,11.23
2022-12-03T07:44:14.822Z,10.03
2022-12-03T07:46:42.635Z,10.33
2022-12-03T07:49:12.147Z,10.33
2022-12-03T07:51:39.727Z,10.83
2022-12-03T07:54:07.579Z,9.77
2022-12-03T07:56:35.067Z,10.67
2022-12-03T07:59:02.594Z,10.50
2022-12-03T08:01:30.129Z,10.97
2022-12-03T08:03:57.777Z,10.00
2022-12-03T08:06:26.585Z,10.63
2022-12-03T08:08:54.053Z,10.30
2022-12-03T08:11:21.517Z,10.10
2022-12-03T08:13:49.019Z,10.77
2022-12-03T08:16:17.804Z,10.87
2022-12-03T08:18:45.992Z,10.43
2022-12-03T08:21:13.818Z,11.17
2022-12-03T08:23:42.890Z,10.27
2022-12-03T08:26:13.865Z,10.63
2022-12-03T08:28:41.301Z,11.20
2022-12-03T08:31:13.678Z,10.97
2022-12-03T08:33:41.810Z,11.30
2022-12-03T08:36:13.358Z,11.13
2022-12-03T08:38:44.198Z,10.30
2022-12-03T08:41:13.497Z,10.83
2022-12-03T08:43:42.884Z,10.17
2022-12-03T08:46:12.622Z,10.80
2022-12-03T08:48:47.022Z,10.60
2022-12-03T08:51:21.136Z,10.07
2022-12-03T08:53:50.903Z,10.37
2022-12-03T08:56:22.534Z,10.53
2022-12-03T08:58:52.529Z,10.87
2022-12-03T09:01:39.084Z,10.80
2022-12-03T09:04:16.503Z,10.23
2022-12-03T09:06:43.970Z,11.80
2022-12-03T09:09:12.804Z,11.03
2022-12-03T09:11:40.405Z,11.50
2022-12-03T09:14:07.862Z,10.70
2022-12-03T09:16:35.470Z,10.70
2022-12-03T09:19:03.122Z,10.73
2022-12-03T09:21:30.554Z,10.80
2022-12-03T09:23:58.006Z,10.40
2022-12-03T09:26:27.080Z,10.90
2022-12-03T09:28:54.511Z,11.33
2022-12-03T09:31:21.977Z,10.17
2022-12-03T09:33:49.510Z,10.50
2022-12-03T09:36:16.967Z,11.00
2022-12-03T09:38:47.693Z,10.67
2022-12-03T09:41:15.719Z,10.77
2022-12-03T09:44:03.196Z,12.60
2022-12-03T09:46:31.845Z,11.87
2022-12-03T09:48:59.315Z,12.00
2022-12-03T09:51:30.600Z,10.43
2022-12-03T09:53:59.103Z,12.00
2022-12-03T09:56:26.561Z,9.77
2022-12-03T09:58:55.449Z,9.23
2022-12-03T10:01:25.819Z,9.37
2022-12-03T10:03:55.449Z,10.97
2022-12-03T10:06:24.313Z,10.63
2022-12-03T10:08:53.680Z,9.17
2022-12-03T10:11:22.131Z,9.27
2022-12-03T10:13:52.421Z,8.93
2022-12-03T10:16:21.988Z,9.37
2022-12-03T10:18:51.106Z,9.53
2022-12-03T10:21:20.497Z,8.93
2022-12-03T10:23:54.933Z,9.53
2022-12-03T10:26:36.736Z,9.33
2022-12-03T10:29:12.437Z,9.57
2022-12-03T10:31:41.525Z,10.37
2022-12-03T10:34:09.920Z,8.90
2022-12-03T10:36:37.573Z,9.47
2022-12-03T10:39:07.234Z,9.83
2022-12-03T10:41:34.858Z,10.10
2022-12-03T10:44:19.176Z,9.20
2022-12-03T10:47:05.309Z,9.10
2022-12-03T10:49:32.936Z,9.67
2022-12-03T10:52:00.417Z,8.70
2022-12-03T10:54:28.424Z,9.80
2022-12-03T10:56:55.860Z,10.70
2022-12-03T10:59:24.685Z,10.47
2022-12-03T11:01:53.592Z,9.60
2022-12-03T11:04:22.876Z,9.90
2022-12-03T11:06:51.085Z,9.80
2022-12-03T11:09:22.380Z,9.93
2022-12-03T11:11:50.146Z,9.97
2022-12-03T11:14:36.314Z,10.17
2022-12-03T11:17:11.372Z,10.10
2022-12-03T11:19:43.513Z,9.13
2022-12-03T11:22:28.020Z,9.60
2022-12-03T11:25:10.388Z,9.63
2022-12-03T11:27:37.848Z,9.53
2022-12-03T11:30:10.370Z,9.27
2022-12-03T11:33:04.665Z,9.77
2022-12-03T11:36:02.225Z,8.93
2022-12-03T11:38:52.860Z,8.60
2022-12-03T11:41:22.279Z,9.13
2022-12-03T11:43:59.714Z,8.93
2022-12-03T11:46:28.640Z,9.73
2022-12-03T11:48:57.436Z,9.27
2022-12-03T11:51:25.875Z,9.03
2022-12-03T11:53:57.302Z,9.03
2022-12-03T11:56:25.682Z,9.07
2022-12-03T11:58:58.915Z,10.07
2022-12-03T12:01:38.097Z,9.47
2022-12-03T12:04:06.278Z,9.33
2022-12-03T12:06:42.238Z,9.93
2022-12-03T12:09:11.513Z,9.40
2022-12-03T12:11:41.485Z,9.17
2022-12-03T12:14:09.844Z,8.60
2022-12-03T12:16:50.425Z,9.13
2022-12-03T12:19:34.490Z,8.67
2022-12-03T12:22:15.640Z,7.83
2022-12-03T12:24:51.220Z,8.83
2022-12-03T12:27:19.413Z,8.20
2022-12-03T12:29:53.590Z,9.00
2022-12-03T12:32:24.955Z,8.77
2022-12-03T12:34:54.670Z,8.70
2022-12-03T12:37:23.048Z,8.93
2022-12-03T12:39:54.151Z,8.73
2022-12-03T12:42:28.343Z,8.80
2022-12-03T12:44:58.885Z,9.57
2022-12-03T12:47:26.358Z,8.77
2022-12-03T12:49:54.341Z,8.97
2022-12-03T12:52:22.793Z,9.00
2022-12-03T12:54:50.273Z,8.87
2022-12-03T12:57:22.144Z,8.97
2022-12-03T12:59:49.660Z,8.60
2022-12-03T13:02:34.331Z,8.67
2022-12-03T13:05:02.582Z,8.87
2022-12-03T13:07:30.507Z,8.93
2022-12-03T13:09:58.291Z,9.30
2022-12-03T13:12:27.100Z,9.00
2022-12-03T13:14:57.079Z,8.90
2022-12-03T13:17:25.979Z,9.10
2022-12-03T13:20:03.672Z,8.63
2022-12-03T13:22:34.790Z,9.07
2022-12-03T13:25:04.093Z,9.13
2022-12-03T13:27:33.638Z,8.80
2022-12-03T13:30:02.615Z,8.20
2022-12-03T13:32:32.311Z,8.87
2022-12-03T13:35:01.909Z,8.80
2022-12-03T13:37:29.527Z,9.03
2022-12-03T13:39:58.855Z,8.93
2022-12-03T13:42:41.488Z,9.03
2022-12-03T13:45:26.748Z,7.83
2022-12-03T13:47:56.649Z,9.40
2022-12-03T13:50:29.262Z,8.40
2022-12-03T13:52:56.961Z,8.63
2022-12-03T13:55:26.074Z,8.43
2022-12-03T13:57:53.596Z,8.37
2022-12-03T14:00:21.082Z,8.93
2022-12-03T14:02:48.765Z,8.33
2022-12-03T14:05:17.829Z,9.10
2022-12-03T14:07:45.381Z,9.13
2022-12-03T14:10:13.206Z,9.20
2022-12-03T14:12:40.649Z,9.47
2022-12-03T14:15:09.001Z,9.37
2022-12-03T14:17:36.457Z,9.30
2022-12-03T14:20:04.515Z,9.40
2022-12-03T14:22:33.141Z,9.40
2022-12-03T14:25:02.079Z,8.97
2022-12-03T14:27:29.482Z,8.83
2022-12-03T14:29:57.193Z,9.30
2022-12-03T14:32:24.849Z,9.33
2022-12-03T14:34:52.393Z,9.97
2022-12-03T14:37:19.838Z,9.07
2022-12-03T14:39:47.312Z,8.80
2022-12-03T14:42:16.671Z,9.00
2022-12-03T14:44:45.128Z,9.33
2022-12-03T14:47:12.991Z,9.60
2022-12-03T14:49:40.561Z,9.63
2022-12-03T14:52:11.905Z,8.80
2022-12-03T14:54:42.001Z,9.57
2022-12-03T14:57:09.951Z,8.93
2022-12-03T14:59:38.800Z,9.00
2022-12-03T15:02:06.441Z,9.43
2022-12-03T15:04:34.514Z,9.47
2022-12-03T15:07:01.945Z,9.53
2022-12-03T15:09:29.510Z,9.60
2022-12-03T15:11:56.998Z,10.17
2022-12-03T15:14:24.477Z,10.10
2022-12-03T15:16:53.356Z,9.30
2022-12-03T15:19:20.956Z,9.97
2022-12-03T15:21:48.426Z,9.47
2022-12-03T15:24:15.885Z,9.67
2022-12-03T15:26:43.337Z,10.33
2022-12-03T15:29:11.053Z,10.37
2022-12-03T15:31:38.520Z,10.03
2022-12-03T15:34:07.407Z,9.87
2022-12-03T15:36:34.874Z,10.43
2022-12-03T15:39:02.917Z,9.67
2022-12-03T15:41:30.512Z,10.40
2022-12-03T15:43:58.789Z,9.83
2022-12-03T15:46:27.714Z,10.93
2022-12-03T15:48:55.388Z,10.73
2022-12-03T15:51:24.446Z,10.07
2022-12-03T15:53:51.917Z,10.03
2022-12-03T15:56:19.383Z,10.20
2022-12-03T15:58:46.858Z,9.63
2022-12-03T16:01:14.464Z,10.57
2022-12-03T16:03:42.256Z,10.33
2022-12-03T16:06:10.001Z,9.60
2022-12-03T16:08:38.801Z,10.13
2022-12-03T16:11:06.435Z,10.03
2022-12-03T16:13:34.246Z,10.30
2022-12-03T16:16:01.740Z,10.10
2022-12-03T16:18:29.269Z,10.17
2022-12-03T16:20:56.718Z,10.43
2022-12-03T16:23:24.189Z,10.40
2022-12-03T16:25:52.986Z,10.03
2022-12-03T16:28:20.448Z,10.57
2022-12-03T16:30:47.982Z,9.70
2022-12-03T16:33:15.482Z,9.47
2022-12-03T16:35:42.953Z,9.50
2022-12-03T16:38:10.394Z,8.90
2022-12-03T16:40:37.831Z,9.97
2022-12-03T16:43:08.366Z,8.93
2022-12-03T16:45:49.913Z,8.97
2022-12-03T16:48:17.437Z,9.83
2022-12-03T16:50:44.850Z,10.47
2022-12-03T16:53:12.294Z,9.93
2022-12-03T16:55:39.719Z,9.80
2022-12-03T16:58:08.548Z,9.87
2022-12-03T17:00:36.140Z,9.33
2022-12-03T17:03:03.763Z,9.50
2022-12-03T17:05:31.364Z,9.53
2022-12-03T17:07:58.886Z,10.53
2022-12-03T17:10:26.432Z,9.70
2022-12-03T17:13:09.281Z,9.83
2022-12-03T17:15:38.766Z,9.43
2022-12-03T17:18:06.837Z,9.43
2022-12-03T17:20:35.975Z,9.33
2022-12-03T17:23:03.833Z,9.73
2022-12-03T17:25:31.348Z,10.17
2022-12-03T17:27:58.808Z,9.93
2022-12-03T17:30:26.234Z,9.23
2022-12-03T17:32:55.022Z,9.67
2022-12-03T17:35:22.529Z,10.60
2022-12-03T17:37:49.952Z,9.53
2022-12-03T17:40:18.117Z,10.67
2022-12-03T17:42:45.573Z,9.20
2022-12-03T17:45:13.621Z,9.67
2022-12-03T17:47:41.099Z,10.73
2022-12-03T17:50:10.506Z,10.13
2022-12-03T17:52:37.958Z,10.87
2022-12-03T17:55:18.034Z,8.93
2022-12-03T17:57:51.405Z,9.83
2022-12-03T18:00:19.081Z,9.33
2022-12-03T18:02:46.562Z,9.20
2022-12-03T18:05:15.425Z,10.50
2022-12-03T18:07:42.884Z,10.07
2022-12-03T18:10:11.887Z,10.87
2022-12-03T18:12:39.345Z,9.90
2022-12-03T18:15:07.250Z,9.97
2022-12-03T18:17:34.744Z,9.97
2022-12-03T18:20:02.221Z,10.03
2022-12-03T18:22:31.733Z,9.97
2022-12-03T18:24:59.288Z,10.00
2022-12-03T18:27:26.782Z,12.57
2022-12-03T18:29:54.487Z,17.47
2022-12-03T18:32:30.120Z,11.03
2022-12-03T18:34:58.079Z,10.40
2022-12-03T18:37:26.457Z,10.17
2022-12-03T18:39:56.184Z,10.73
2022-12-03T18:42:24.450Z,10.07
2022-12-03T18:44:52.884Z,10.00
2022-12-03T18:47:21.868Z,9.67
2022-12-03T18:49:49.526Z,10.30
2022-12-03T18:52:17.806Z,10.90
2022-12-03T18:54:45.481Z,10.30
2022-12-03T18:57:14.315Z,10.10
2022-12-03T18:59:41.835Z,9.53
2022-12-03T19:02:26.711Z,10.83
2022-12-03T19:05:01.012Z,10.47
2022-12-03T19:07:28.474Z,10.70
2022-12-03T19:09:56.101Z,10.53
2022-12-03T19:12:25.074Z,10.30
2022-12-03T19:14:52.574Z,10.57
2022-12-03T19:17:21.327Z,9.87
2022-12-03T19:19:48.762Z,11.50
2022-12-03T19:22:16.199Z,11.43
2022-12-03T19:24:43.645Z,11.17
2022-12-03T19:27:11.066Z,10.10
2022-12-03T19:29:39.905Z,11.47
2022-12-03T19:32:07.507Z,11.53
2022-12-03T19:34:34.955Z,10.87
2022-12-03T19:37:03.882Z,11.37
2022-12-03T19:39:31.747Z,11.17
2022-12-03T19:41:59.159Z,11.90
2022-12-03T19:44:26.575Z,12.30
2022-12-03T19:46:56.770Z,12.07
2022-12-03T19:49:24.308Z,11.23
2022-12-03T19:51:51.809Z,11.10
2022-12-03T19:54:19.331Z,11.67
2022-12-03T19:56:47.216Z,10.63
2022-12-03T19:59:15.045Z,11.20
2022-12-03T20:01:43.286Z,11.60
2022-12-03T20:04:13.169Z,10.73
2022-12-03T20:06:40.610Z,10.67
2022-12-03T20:09:09.110Z,11.13
2022-12-03T20:11:36.621Z,10.87
2022-12-03T20:14:05.358Z,10.67
2022-12-03T20:16:32.886Z,10.87
2022-12-03T20:19:01.067Z,11.07
2022-12-03T20:21:30.907Z,11.07
2022-12-03T20:23:58.334Z,10.73
2022-12-03T20:26:26.238Z,11.23
2022-12-03T20:28:53.873Z,10.87
2022-12-03T20:31:22.605Z,11.37
2022-12-03T20:33:50.809Z,10.63
2022-12-03T20:36:18.850Z,10.90
2022-12-03T20:38:47.650Z,11.53
2022-12-03T20:41:16.318Z,10.63
2022-12-03T20:43:43.725Z,10.90
2022-12-03T20:46:11.903Z,11.03
2022-12-03T20:48:39.470Z,11.73
2022-12-03T20:51:08.231Z,10.57
2022-12-03T20:53:36.145Z,11.00
2022-12-03T20:56:05.330Z,11.00
2022-12-03T20:58:33.513Z,12.40
2022-12-03T21:01:12.589Z,11.07
2022-12-03T21:03:43.644Z,12.00
2022-12-03T21:06:11.126Z,12.20
2022-12-03T21:08:41.920Z,11.73
2022-12-03T21:11:11.709Z,11.80
2022-12-03T21:13:41.181Z,10.63
2022-12-03T21:16:09.570Z,10.97
2022-12-03T21:18:38.053Z,11.00
2022-12-03T21:21:06.195Z,11.93
2022-12-03T21:23:34.185Z,10.73
2022-12-03T21:26:07.933Z,11.30
2022-12-03T21:28:36.756Z,10.40
2022-12-03T21:31:05.536Z,11.47
2022-12-03T21:33:33.390Z,11.23
2022-12-03T21:36:01.103Z,12.40
2022-12-03T21:38:28.959Z,11.77
2022-12-03T21:40:56.846Z,11.00
2022-12-03T21:43:24.642Z,10.70
2022-12-03T21:45:53.836Z,11.00
2022-12-03T21:48:21.392Z,11.33
2022-12-03T21:50:58.315Z,11.53
2022-12-03T21:53:25.819Z,11.87
2022-12-03T21:55:53.312Z,12.00
2022-12-03T21:58:20.732Z,12.50
2022-12-03T22:00:48.204Z,11.67
2022-12-03T22:03:17.107Z,11.37
2022-12-03T22:05:44.662Z,11.97
2022-12-03T22:08:14.114Z,13.03
2022-12-03T22:10:41.624Z,12.73
2022-12-03T22:13:09.262Z,12.07
2022-12-03T22:15:39.001Z,12.27
2022-12-03T22:18:06.592Z,12.33
2022-12-03T22:20:35.370Z,12.93
2022-12-03T22:23:02.868Z,12.53
2022-12-03T22:25:31.382Z,12.47
2022-12-03T22:27:58.813Z,11.93
2022-12-03T22:30:26.273Z,13.20
2022-12-03T22:32:53.713Z,12.03
2022-12-03T22:35:21.170Z,13.47
2022-12-03T22:37:49.967Z,13.07
2022-12-03T22:40:17.686Z,12.87
2022-12-03T22:42:50.576Z,12.27
2022-12-03T22:45:18.453Z,12.10
2022-12-03T22:47:45.918Z,13.23
2022-12-03T22:50:13.412Z,11.87
2022-12-03T22:52:40.877Z,13.17
2022-12-03T22:55:10.319Z,12.97
2022-12-03T22:57:37.741Z,12.23
2022-12-03T23:00:08.346Z,13.10
2022-12-03T23:02:35.844Z,13.00
2022-12-03T23:05:03.376Z,12.93
2022-12-03T23:07:30.858Z,13.83
2022-12-03T23:09:58.402Z,12.90
2022-12-03T23:12:27.197Z,12.60
2022-12-03T23:14:55.181Z,12.40
2022-12-03T23:17:22.665Z,12.57
2022-12-03T23:19:50.204Z,13.07
2022-12-03T23:22:17.651Z,12.77
2022-12-03T23:24:45.584Z,12.37
2022-12-03T23:27:13.347Z,12.30
2022-12-03T23:29:42.150Z,14.07
2022-12-03T23:32:09.587Z,13.53
2022-12-03T23:34:37.192Z,13.13
2022-12-03T23:37:04.745Z,12.63
2022-12-03T23:39:32.420Z,13.10
2022-12-03T23:41:59.847Z,13.70
2022-12-03T23:44:28.453Z,13.70
2022-12-03T23:46:57.379Z,12.93
2022-12-03T23:49:24.878Z,14.17
2022-12-03T23:51:52.335Z,13.97
2022-12-03T23:54:19.843Z,12.87
2022-12-03T23:56:47.280Z,13.33
2022-12-03T23:59:14.779Z,13.43
